sensor_id;sensor_type;location;lat;lon;timestamp;pressure;altitude;pressure_sealevel;temperature;humidity
67373;BME280;54257;54.496;18.412;2022-12-10T00:01:48;99225.55;;;-2.57;85.19
67373;BME280;54257;54.496;18.412;2022-12-10T00:04:15;99228.95;;;-2.56;85.25
67373;BME280;54257;54.496;18.412;2022-12-10T00:06:43;99226.10;;;-2.56;85.22
67373;BME280;54257;54.496;18.412;2022-12-10T00:09:13;99229.35;;;-2.55;85.25
67373;BME280;54257;54.496;18.412;2022-12-10T00:11:41;99227.80;;;-2.52;85.28
67373;BME280;54257;54.496;18.412;2022-12-10T00:14:10;99229.68;;;-2.49;85.42
67373;BME280;54257;54.496;18.412;2022-12-10T00:16:38;99227.80;;;-2.46;85.40
67373;BME280;54257;54.496;18.412;2022-12-10T00:19:06;99228.83;;;-2.43;85.45
67373;BME280;54257;54.496;18.412;2022-12-10T00:21:34;99229.46;;;-2.41;85.42
67373;BME280;54257;54.496;18.412;2022-12-10T00:24:03;99229.01;;;-2.40;85.47
67373;BME280;54257;54.496;18.412;2022-12-10T00:26:36;99229.16;;;-2.37;85.42
67373;BME280;54257;54.496;18.412;2022-12-10T00:29:05;99234.02;;;-2.34;85.54
67373;BME280;54257;54.496;18.412;2022-12-10T00:31:35;99234.19;;;-2.31;85.56
67373;BME280;54257;54.496;18.412;2022-12-10T00:34:08;99230.77;;;-2.29;85.46
67373;BME280;54257;54.496;18.412;2022-12-10T00:36:43;99228.83;;;-2.28;85.48
67373;BME280;54257;54.496;18.412;2022-12-10T00:39:13;99227.63;;;-2.29;85.40
67373;BME280;54257;54.496;18.412;2022-12-10T00:41:43;99223.63;;;-2.31;85.29
67373;BME280;54257;54.496;18.412;2022-12-10T00:44:10;99221.98;;;-2.37;85.24
67373;BME280;54257;54.496;18.412;2022-12-10T00:46:37;99233.59;;;-2.39;85.09
67373;BME280;54257;54.496;18.412;2022-12-10T00:49:05;99231.02;;;-2.43;85.20
67373;BME280;54257;54.496;18.412;2022-12-10T00:51:32;99228.66;;;-2.43;85.33
67373;BME280;54257;54.496;18.412;2022-12-10T00:54:00;99232.06;;;-2.42;85.36
67373;BME280;54257;54.496;18.412;2022-12-10T00:56:30;99230.31;;;-2.43;85.25
67373;BME280;54257;54.496;18.412;2022-12-10T00:59:00;99230.77;;;-2.44;85.12
67373;BME280;54257;54.496;18.412;2022-12-10T01:01:31;99231.98;;;-2.44;85.24
67373;BME280;54257;54.496;18.412;2022-12-10T01:04:05;99234.20;;;-2.43;85.25
67373;BME280;54257;54.496;18.412;2022-12-10T01:06:52;99237.95;;;-2.42;85.18
67373;BME280;54257;54.496;18.412;2022-12-10T01:09:23;99240.92;;;-2.39;85.16
67373;BME280;54257;54.496;18.412;2022-12-10T01:11:51;99237.48;;;-2.38;85.19
67373;BME280;54257;54.496;18.412;2022-12-10T01:14:30;99230.27;;;-2.38;85.06
67373;BME280;54257;54.496;18.412;2022-12-10T01:17:04;99231.52;;;-2.40;84.94
67373;BME280;54257;54.496;18.412;2022-12-10T01:19:33;99232.96;;;-2.41;84.84
67373;BME280;54257;54.496;18.412;2022-12-10T01:22:00;99232.85;;;-2.46;84.73
67373;BME280;54257;54.496;18.412;2022-12-10T01:24:28;99232.80;;;-2.50;84.46
67373;BME280;54257;54.496;18.412;2022-12-10T01:26:56;99230.86;;;-2.55;84.55
67373;BME280;54257;54.496;18.412;2022-12-10T01:29:23;99227.79;;;-2.56;84.65
67373;BME280;54257;54.496;18.412;2022-12-10T01:31:53;99227.73;;;-2.57;84.81
67373;BME280;54257;54.496;18.412;2022-12-10T01:34:21;99228.80;;;-2.56;85.02
67373;BME280;54257;54.496;18.412;2022-12-10T01:36:51;99227.15;;;-2.55;85.08
67373;BME280;54257;54.496;18.412;2022-12-10T01:39:21;99225.98;;;-2.55;85.08
67373;BME280;54257;54.496;18.412;2022-12-10T01:46:49;99228.86;;;-2.51;84.97
67373;BME280;54257;54.496;18.412;2022-12-10T01:49:23;99224.36;;;-2.54;84.91
67373;BME280;54257;54.496;18.412;2022-12-10T01:51:53;99224.95;;;-2.53;85.01
67373;BME280;54257;54.496;18.412;2022-12-10T01:54:28;99222.73;;;-2.51;85.14
67373;BME280;54257;54.496;18.412;2022-12-10T01:57:12;99218.80;;;-2.49;85.12
67373;BME280;54257;54.496;18.412;2022-12-10T01:59:41;99216.89;;;-2.47;85.08
67373;BME280;54257;54.496;18.412;2022-12-10T02:05:24;99216.80;;;-2.43;85.10
67373;BME280;54257;54.496;18.412;2022-12-10T02:13:15;99215.74;;;-2.44;85.14
67373;BME280;54257;54.496;18.412;2022-12-10T02:15:50;99215.81;;;-2.43;85.18
67373;BME280;54257;54.496;18.412;2022-12-10T02:18:27;99215.45;;;-2.40;85.28
67373;BME280;54257;54.496;18.412;2022-12-10T02:21:00;99218.56;;;-2.38;85.34
67373;BME280;54257;54.496;18.412;2022-12-10T02:23:33;99214.05;;;-2.38;85.26
67373;BME280;54257;54.496;18.412;2022-12-10T02:26:20;99216.56;;;-2.38;85.14
67373;BME280;54257;54.496;18.412;2022-12-10T02:31:26;99215.63;;;-2.40;85.09
67373;BME280;54257;54.496;18.412;2022-12-10T02:33:56;99218.63;;;-2.40;85.08
67373;BME280;54257;54.496;18.412;2022-12-10T02:36:28;99218.48;;;-2.43;85.22
67373;BME280;54257;54.496;18.412;2022-12-10T02:38:57;99222.09;;;-2.41;85.37
67373;BME280;54257;54.496;18.412;2022-12-10T02:41:32;99223.19;;;-2.39;85.40
67373;BME280;54257;54.496;18.412;2022-12-10T02:44:04;99223.89;;;-2.39;85.36
67373;BME280;54257;54.496;18.412;2022-12-10T02:46:33;99221.71;;;-2.36;85.43
67373;BME280;54257;54.496;18.412;2022-12-10T02:49:02;99227.17;;;-2.34;85.46
67373;BME280;54257;54.496;18.412;2022-12-10T02:51:30;99226.83;;;-2.34;85.33
67373;BME280;54257;54.496;18.412;2022-12-10T02:54:02;99230.08;;;-2.33;85.34
67373;BME280;54257;54.496;18.412;2022-12-10T02:56:34;99224.75;;;-2.32;85.30
67373;BME280;54257;54.496;18.412;2022-12-10T02:59:33;99230.71;;;-2.34;85.37
67373;BME280;54257;54.496;18.412;2022-12-10T03:02:29;99228.90;;;-2.33;85.26
67373;BME280;54257;54.496;18.412;2022-12-10T03:05:05;99225.77;;;-2.35;85.11
67373;BME280;54257;54.496;18.412;2022-12-10T03:07:52;99228.92;;;-2.38;84.96
67373;BME280;54257;54.496;18.412;2022-12-10T03:10:40;99230.02;;;-2.40;85.00
67373;BME280;54257;54.496;18.412;2022-12-10T03:13:12;99224.38;;;-2.42;84.96
67373;BME280;54257;54.496;18.412;2022-12-10T03:15:42;99222.68;;;-2.45;84.84
67373;BME280;54257;54.496;18.412;2022-12-10T03:18:15;99215.08;;;-2.47;84.79
67373;BME280;54257;54.496;18.412;2022-12-10T03:20:45;99215.52;;;-2.48;84.86
67373;BME280;54257;54.496;18.412;2022-12-10T03:23:16;99215.67;;;-2.48;84.92
67373;BME280;54257;54.496;18.412;2022-12-10T03:25:48;99210.64;;;-2.48;84.83
67373;BME280;54257;54.496;18.412;2022-12-10T03:28:18;99212.25;;;-2.50;84.93
67373;BME280;54257;54.496;18.412;2022-12-10T03:30:47;99216.14;;;-2.49;84.90
67373;BME280;54257;54.496;18.412;2022-12-10T03:33:17;99215.07;;;-2.47;85.04
67373;BME280;54257;54.496;18.412;2022-12-10T03:35:45;99215.63;;;-2.46;84.96
67373;BME280;54257;54.496;18.412;2022-12-10T03:38:13;99216.61;;;-2.46;84.93
67373;BME280;54257;54.496;18.412;2022-12-10T03:40:42;99220.66;;;-2.45;84.96
67373;BME280;54257;54.496;18.412;2022-12-10T03:43:12;99220.16;;;-2.45;84.89
67373;BME280;54257;54.496;18.412;2022-12-10T03:45:40;99216.44;;;-2.44;84.95
67373;BME280;54257;54.496;18.412;2022-12-10T03:48:08;99213.85;;;-2.45;84.92
67373;BME280;54257;54.496;18.412;2022-12-10T03:50:35;99217.13;;;-2.43;84.91
67373;BME280;54257;54.496;18.412;2022-12-10T03:53:02;99214.99;;;-2.43;84.92
67373;BME280;54257;54.496;18.412;2022-12-10T03:55:29;99217.02;;;-2.42;84.99
67373;BME280;54257;54.496;18.412;2022-12-10T03:57:56;99216.09;;;-2.40;85.08
67373;BME280;54257;54.496;18.412;2022-12-10T04:00:23;99216.48;;;-2.39;85.03
67373;BME280;54257;54.496;18.412;2022-12-10T04:02:50;99217.83;;;-2.39;85.05
67373;BME280;54257;54.496;18.412;2022-12-10T04:05:18;99215.64;;;-2.40;85.09
67373;BME280;54257;54.496;18.412;2022-12-10T04:07:45;99212.34;;;-2.39;85.12
67373;BME280;54257;54.496;18.412;2022-12-10T04:10:12;99212.11;;;-2.40;85.07
67373;BME280;54257;54.496;18.412;2022-12-10T04:12:42;99210.17;;;-2.39;85.17
67373;BME280;54257;54.496;18.412;2022-12-10T04:15:30;99210.63;;;-2.37;85.26
67373;BME280;54257;54.496;18.412;2022-12-10T04:18:16;99212.23;;;-2.35;85.41
67373;BME280;54257;54.496;18.412;2022-12-10T04:20:43;99209.13;;;-2.34;85.40
67373;BME280;54257;54.496;18.412;2022-12-10T04:23:28;99209.98;;;-2.34;85.34
67373;BME280;54257;54.496;18.412;2022-12-10T04:26:14;99215.45;;;-2.35;85.28
67373;BME280;54257;54.496;18.412;2022-12-10T04:29:00;99214.66;;;-2.34;85.35
67373;BME280;54257;54.496;18.412;2022-12-10T04:31:27;99214.95;;;-2.34;85.23
67373;BME280;54257;54.496;18.412;2022-12-10T04:33:54;99213.98;;;-2.34;85.38
67373;BME280;54257;54.496;18.412;2022-12-10T04:36:21;99216.42;;;-2.32;85.37
67373;BME280;54257;54.496;18.412;2022-12-10T04:38:48;99211.20;;;-2.29;85.41
67373;BME280;54257;54.496;18.412;2022-12-10T04:41:16;99210.92;;;-2.29;85.44
67373;BME280;54257;54.496;18.412;2022-12-10T04:43:43;99212.79;;;-2.25;85.41
67373;BME280;54257;54.496;18.412;2022-12-10T04:46:11;99212.51;;;-2.24;85.36
67373;BME280;54257;54.496;18.412;2022-12-10T04:48:38;99212.42;;;-2.22;85.38
67373;BME280;54257;54.496;18.412;2022-12-10T04:51:05;99210.24;;;-2.19;85.37
67373;BME280;54257;54.496;18.412;2022-12-10T04:53:32;99206.77;;;-2.18;85.12
67373;BME280;54257;54.496;18.412;2022-12-10T04:55:59;99203.20;;;-2.19;85.15
67373;BME280;54257;54.496;18.412;2022-12-10T04:58:27;99206.09;;;-2.19;85.08
67373;BME280;54257;54.496;18.412;2022-12-10T05:01:05;99203.27;;;-2.18;85.19
67373;BME280;54257;54.496;18.412;2022-12-10T05:03:34;99200.96;;;-2.18;85.11
67373;BME280;54257;54.496;18.412;2022-12-10T05:06:08;99206.02;;;-2.17;85.19
67373;BME280;54257;54.496;18.412;2022-12-10T05:08:37;99202.52;;;-2.17;85.05
67373;BME280;54257;54.496;18.412;2022-12-10T05:11:16;99201.18;;;-2.17;84.99
67373;BME280;54257;54.496;18.412;2022-12-10T05:13:44;99200.57;;;-2.15;85.10
67373;BME280;54257;54.496;18.412;2022-12-10T05:16:14;99199.93;;;-2.15;84.98
67373;BME280;54257;54.496;18.412;2022-12-10T05:18:41;99199.65;;;-2.14;84.84
67373;BME280;54257;54.496;18.412;2022-12-10T05:21:14;99195.01;;;-2.16;84.90
67373;BME280;54257;54.496;18.412;2022-12-10T05:23:44;99198.59;;;-2.12;84.92
67373;BME280;54257;54.496;18.412;2022-12-10T05:26:17;99197.25;;;-2.12;84.75
67373;BME280;54257;54.496;18.412;2022-12-10T05:28:47;99198.91;;;-2.12;84.64
67373;BME280;54257;54.496;18.412;2022-12-10T05:33:48;99199.10;;;-2.12;84.63
67373;BME280;54257;54.496;18.412;2022-12-10T05:36:18;99199.23;;;-2.12;84.68
67373;BME280;54257;54.496;18.412;2022-12-10T05:38:46;99198.68;;;-2.11;84.70
67373;BME280;54257;54.496;18.412;2022-12-10T05:41:16;99203.10;;;-2.09;84.55
67373;BME280;54257;54.496;18.412;2022-12-10T05:43:44;99205.06;;;-2.10;84.41
67373;BME280;54257;54.496;18.412;2022-12-10T05:46:15;99200.14;;;-2.11;84.44
67373;BME280;54257;54.496;18.412;2022-12-10T05:48:45;99209.61;;;-2.06;84.53
67373;BME280;54257;54.496;18.412;2022-12-10T05:51:15;99211.14;;;-2.03;84.62
67373;BME280;54257;54.496;18.412;2022-12-10T05:53:42;99210.41;;;-2.01;84.53
67373;BME280;54257;54.496;18.412;2022-12-10T05:56:13;99207.16;;;-1.99;84.56
67373;BME280;54257;54.496;18.412;2022-12-10T05:58:42;99206.51;;;-1.95;84.63
67373;BME280;54257;54.496;18.412;2022-12-10T06:01:13;99208.38;;;-1.92;84.55
67373;BME280;54257;54.496;18.412;2022-12-10T06:03:41;99210.58;;;-1.91;84.26
67373;BME280;54257;54.496;18.412;2022-12-10T06:06:09;99204.38;;;-1.95;84.16
67373;BME280;54257;54.496;18.412;2022-12-10T06:08:37;99207.75;;;-1.94;84.14
67373;BME280;54257;54.496;18.412;2022-12-10T06:11:08;99210.20;;;-1.92;84.28
67373;BME280;54257;54.496;18.412;2022-12-10T06:13:36;99208.30;;;-1.90;84.32
67373;BME280;54257;54.496;18.412;2022-12-10T06:16:08;99204.30;;;-1.87;84.33
67373;BME280;54257;54.496;18.412;2022-12-10T06:18:37;99207.14;;;-1.84;84.29
67373;BME280;54257;54.496;18.412;2022-12-10T06:21:10;99208.67;;;-1.80;84.37
67373;BME280;54257;54.496;18.412;2022-12-10T06:23:41;99205.14;;;-1.74;84.57
67373;BME280;54257;54.496;18.412;2022-12-10T06:26:13;99209.17;;;-1.67;84.64
67373;BME280;54257;54.496;18.412;2022-12-10T06:28:44;99211.24;;;-1.63;84.58
67373;BME280;54257;54.496;18.412;2022-12-10T06:31:11;99218.21;;;-1.61;84.38
67373;BME280;54257;54.496;18.412;2022-12-10T06:33:38;99212.90;;;-1.60;84.34
67373;BME280;54257;54.496;18.412;2022-12-10T06:36:07;99218.56;;;-1.54;84.51
67373;BME280;54257;54.496;18.412;2022-12-10T06:38:35;99219.45;;;-1.50;84.28
67373;BME280;54257;54.496;18.412;2022-12-10T06:41:07;99226.07;;;-1.48;83.97
67373;BME280;54257;54.496;18.412;2022-12-10T06:43:38;99229.21;;;-1.49;83.66
67373;BME280;54257;54.496;18.412;2022-12-10T06:46:07;99230.52;;;-1.47;83.75
67373;BME280;54257;54.496;18.412;2022-12-10T06:48:36;99232.64;;;-1.44;83.91
67373;BME280;54257;54.496;18.412;2022-12-10T06:51:04;99230.08;;;-1.46;83.74
67373;BME280;54257;54.496;18.412;2022-12-10T06:53:33;99237.56;;;-1.43;83.73
67373;BME280;54257;54.496;18.412;2022-12-10T06:56:03;99240.70;;;-1.44;83.64
67373;BME280;54257;54.496;18.412;2022-12-10T06:58:41;99243.52;;;-1.45;83.46
67373;BME280;54257;54.496;18.412;2022-12-10T07:01:16;99244.99;;;-1.48;83.26
67373;BME280;54257;54.496;18.412;2022-12-10T07:03:55;99251.23;;;-1.57;82.72
67373;BME280;54257;54.496;18.412;2022-12-10T07:06:23;99249.15;;;-1.64;82.63
67373;BME280;54257;54.496;18.412;2022-12-10T07:08:52;99246.30;;;-1.72;82.59
67373;BME280;54257;54.496;18.412;2022-12-10T07:11:21;99245.23;;;-1.78;82.52
67373;BME280;54257;54.496;18.412;2022-12-10T07:13:49;99243.55;;;-1.85;82.60
67373;BME280;54257;54.496;18.412;2022-12-10T07:16:18;99245.27;;;-1.94;82.45
67373;BME280;54257;54.496;18.412;2022-12-10T07:18:50;99244.44;;;-2.00;82.51
67373;BME280;54257;54.496;18.412;2022-12-10T07:21:24;99254.39;;;-2.04;82.20
67373;BME280;54257;54.496;18.412;2022-12-10T07:23:53;99253.33;;;-2.11;82.34
67373;BME280;54257;54.496;18.412;2022-12-10T07:26:31;99254.13;;;-2.12;82.70
67373;BME280;54257;54.496;18.412;2022-12-10T07:29:03;99250.60;;;-2.12;83.02
67373;BME280;54257;54.496;18.412;2022-12-10T07:31:33;99258.27;;;-2.07;83.17
67373;BME280;54257;54.496;18.412;2022-12-10T07:34:01;99256.31;;;-2.03;83.28
67373;BME280;54257;54.496;18.412;2022-12-10T07:36:29;99255.45;;;-2.00;83.42
67373;BME280;54257;54.496;18.412;2022-12-10T07:38:56;99250.05;;;-1.95;83.68
67373;BME280;54257;54.496;18.412;2022-12-10T07:41:27;99250.27;;;-1.90;83.66
67373;BME280;54257;54.496;18.412;2022-12-10T07:43:56;99248.33;;;-1.86;83.72
67373;BME280;54257;54.496;18.412;2022-12-10T07:46:28;99245.04;;;-1.82;83.87
67373;BME280;54257;54.496;18.412;2022-12-10T07:49:00;99247.65;;;-1.77;83.81
67373;BME280;54257;54.496;18.412;2022-12-10T07:51:31;99248.25;;;-1.75;83.55
67373;BME280;54257;54.496;18.412;2022-12-10T07:53:58;99248.83;;;-1.74;83.47
67373;BME280;54257;54.496;18.412;2022-12-10T07:56:26;99249.74;;;-1.76;83.40
67373;BME280;54257;54.496;18.412;2022-12-10T07:58:56;99253.46;;;-1.75;83.47
67373;BME280;54257;54.496;18.412;2022-12-10T08:01:25;99254.42;;;-1.73;83.57
67373;BME280;54257;54.496;18.412;2022-12-10T08:03:54;99259.52;;;-1.74;83.18
67373;BME280;54257;54.496;18.412;2022-12-10T08:06:28;99264.70;;;-1.78;83.12
67373;BME280;54257;54.496;18.412;2022-12-10T08:08:57;99264.73;;;-1.80;83.19
67373;BME280;54257;54.496;18.412;2022-12-10T08:11:25;99267.19;;;-1.84;83.37
67373;BME280;54257;54.496;18.412;2022-12-10T08:13:53;99271.36;;;-1.87;83.55
67373;BME280;54257;54.496;18.412;2022-12-10T08:16:21;99273.39;;;-1.90;83.39
67373;BME280;54257;54.496;18.412;2022-12-10T08:18:50;99266.52;;;-1.93;83.43
67373;BME280;54257;54.496;18.412;2022-12-10T08:21:19;99264.21;;;-1.99;83.33
67373;BME280;54257;54.496;18.412;2022-12-10T08:23:47;99273.91;;;-1.99;83.52
67373;BME280;54257;54.496;18.412;2022-12-10T08:26:19;99274.14;;;-2.01;83.65
67373;BME280;54257;54.496;18.412;2022-12-10T08:28:47;99276.59;;;-2.02;83.72
67373;BME280;54257;54.496;18.412;2022-12-10T08:31:15;99278.33;;;-2.04;83.82
67373;BME280;54257;54.496;18.412;2022-12-10T08:33:42;99278.91;;;-2.05;83.75
67373;BME280;54257;54.496;18.412;2022-12-10T08:36:13;99277.33;;;-2.04;84.06
67373;BME280;54257;54.496;18.412;2022-12-10T08:38:41;99279.65;;;-2.04;84.05
67373;BME280;54257;54.496;18.412;2022-12-10T08:41:09;99284.63;;;-2.02;84.14
67373;BME280;54257;54.496;18.412;2022-12-10T08:43:36;99287.52;;;-2.04;83.87
67373;BME280;54257;54.496;18.412;2022-12-10T08:46:04;99288.17;;;-2.04;84.09
67373;BME280;54257;54.496;18.412;2022-12-10T08:48:32;99288.89;;;-2.04;84.19
67373;BME280;54257;54.496;18.412;2022-12-10T08:50:59;99284.53;;;-2.04;84.37
67373;BME280;54257;54.496;18.412;2022-12-10T08:53:26;99291.63;;;-2.03;84.48
67373;BME280;54257;54.496;18.412;2022-12-10T08:55:53;99293.88;;;-2.01;84.54
67373;BME280;54257;54.496;18.412;2022-12-10T08:58:20;99292.14;;;-1.99;84.62
67373;BME280;54257;54.496;18.412;2022-12-10T09:00:48;99293.09;;;-2.00;84.44
67373;BME280;54257;54.496;18.412;2022-12-10T09:03:15;99291.38;;;-2.01;84.46
67373;BME280;54257;54.496;18.412;2022-12-10T09:05:45;99292.63;;;-1.99;84.44
67373;BME280;54257;54.496;18.412;2022-12-10T09:08:13;99291.25;;;-1.97;84.57
67373;BME280;54257;54.496;18.412;2022-12-10T09:10:40;99289.01;;;-1.95;84.65
67373;BME280;54257;54.496;18.412;2022-12-10T09:13:07;99284.09;;;-1.96;84.41
67373;BME280;54257;54.496;18.412;2022-12-10T09:15:34;99283.35;;;-1.98;84.51
67373;BME280;54257;54.496;18.412;2022-12-10T09:18:01;99291.21;;;-1.91;84.81
67373;BME280;54257;54.496;18.412;2022-12-10T09:20:27;99284.17;;;-1.86;84.94
67373;BME280;54257;54.496;18.412;2022-12-10T09:22:54;99283.57;;;-1.85;84.59
67373;BME280;54257;54.496;18.412;2022-12-10T09:25:21;99282.47;;;-1.83;84.69
67373;BME280;54257;54.496;18.412;2022-12-10T09:27:48;99280.98;;;-1.83;84.67
67373;BME280;54257;54.496;18.412;2022-12-10T09:30:15;99281.74;;;-1.84;84.63
67373;BME280;54257;54.496;18.412;2022-12-10T09:32:43;99279.70;;;-1.85;84.71
67373;BME280;54257;54.496;18.412;2022-12-10T09:35:10;99285.39;;;-1.85;84.64
67373;BME280;54257;54.496;18.412;2022-12-10T09:37:37;99287.41;;;-1.81;84.80
67373;BME280;54257;54.496;18.412;2022-12-10T09:40:04;99285.89;;;-1.76;85.14
67373;BME280;54257;54.496;18.412;2022-12-10T09:45:03;99283.05;;;-1.72;84.79
67373;BME280;54257;54.496;18.412;2022-12-10T09:47:40;99280.01;;;-1.73;84.94
67373;BME280;54257;54.496;18.412;2022-12-10T09:52:48;99281.01;;;-1.67;85.15
67373;BME280;54257;54.496;18.412;2022-12-10T09:55:17;99277.10;;;-1.61;85.28
67373;BME280;54257;54.496;18.412;2022-12-10T09:57:53;99274.58;;;-1.55;85.50
67373;BME280;54257;54.496;18.412;2022-12-10T10:02:50;99274.55;;;-1.44;85.51
67373;BME280;54257;54.496;18.412;2022-12-10T10:05:22;99276.81;;;-1.38;85.35
67373;BME280;54257;54.496;18.412;2022-12-10T10:07:52;99275.40;;;-1.33;85.47
67373;BME280;54257;54.496;18.412;2022-12-10T10:12:52;99269.66;;;-1.21;85.60
67373;BME280;54257;54.496;18.412;2022-12-10T10:15:22;99268.20;;;-1.17;85.52
67373;BME280;54257;54.496;18.412;2022-12-10T10:17:51;99271.41;;;-1.14;85.28
67373;BME280;54257;54.496;18.412;2022-12-10T10:20:19;99270.02;;;-1.11;85.09
67373;BME280;54257;54.496;18.412;2022-12-10T10:22:47;99270.77;;;-1.09;84.92
67373;BME280;54257;54.496;18.412;2022-12-10T10:25:15;99270.66;;;-1.08;84.77
67373;BME280;54257;54.496;18.412;2022-12-10T10:27:43;99274.92;;;-1.07;84.71
67373;BME280;54257;54.496;18.412;2022-12-10T10:30:13;99275.48;;;-1.03;84.77
67373;BME280;54257;54.496;18.412;2022-12-10T10:32:44;99272.35;;;-0.98;84.97
67373;BME280;54257;54.496;18.412;2022-12-10T10:35:21;99268.14;;;-0.92;85.03
67373;BME280;54257;54.496;18.412;2022-12-10T10:37:48;99272.73;;;-0.88;84.81
67373;BME280;54257;54.496;18.412;2022-12-10T10:42:48;99272.14;;;-0.79;84.69
67373;BME280;54257;54.496;18.412;2022-12-10T10:48:31;99259.20;;;-0.70;84.63
67373;BME280;54257;54.496;18.412;2022-12-10T10:51:15;99262.05;;;-0.63;84.73
67373;BME280;54257;54.496;18.412;2022-12-10T10:53:47;99260.81;;;-0.54;84.72
67373;BME280;54257;54.496;18.412;2022-12-10T10:56:25;99261.23;;;-0.45;84.71
67373;BME280;54257;54.496;18.412;2022-12-10T11:01:19;99263.55;;;-0.28;84.92
67373;BME280;54257;54.496;18.412;2022-12-10T11:03:47;99261.72;;;-0.22;84.59
67373;BME280;54257;54.496;18.412;2022-12-10T11:06:18;99267.77;;;-0.17;84.14
67373;BME280;54257;54.496;18.412;2022-12-10T11:08:46;99264.81;;;-0.13;84.10
67373;BME280;54257;54.496;18.412;2022-12-10T11:11:19;99260.73;;;-0.11;84.15
67373;BME280;54257;54.496;18.412;2022-12-10T11:13:47;99260.23;;;-0.03;84.16
67373;BME280;54257;54.496;18.412;2022-12-10T11:18:42;99249.29;;;0.04;83.94
67373;BME280;54257;54.496;18.412;2022-12-10T11:23:41;99246.24;;;0.17;83.92
67373;BME280;54257;54.496;18.412;2022-12-10T11:34:29;99252.58;;;0.31;82.62
67373;BME280;54257;54.496;18.412;2022-12-10T12:06:26;99242.56;;;0.33;81.55
67373;BME280;54257;54.496;18.412;2022-12-10T12:09:12;99242.42;;;0.33;81.52
67373;BME280;54257;54.496;18.412;2022-12-10T12:14:22;99241.86;;;0.32;81.18
67373;BME280;54257;54.496;18.412;2022-12-10T12:19:37;99246.50;;;0.31;80.87
67373;BME280;54257;54.496;18.412;2022-12-10T12:22:21;99246.17;;;0.31;81.13
67373;BME280;54257;54.496;18.412;2022-12-10T12:24:49;99245.73;;;0.32;81.14
67373;BME280;54257;54.496;18.412;2022-12-10T12:27:25;99244.20;;;0.32;81.13
67373;BME280;54257;54.496;18.412;2022-12-10T12:30:27;99242.67;;;0.31;80.98
67373;BME280;54257;54.496;18.412;2022-12-10T12:35:17;99244.42;;;0.29;80.75
67373;BME280;54257;54.496;18.412;2022-12-10T12:37:58;99244.54;;;0.28;80.57
67373;BME280;54257;54.496;18.412;2022-12-10T12:46:09;99239.70;;;0.25;80.24
67373;BME280;54257;54.496;18.412;2022-12-10T12:50:47;99239.80;;;0.23;80.53
67373;BME280;54257;54.496;18.412;2022-12-10T12:53:16;99234.86;;;0.21;80.46
67373;BME280;54257;54.496;18.412;2022-12-10T12:55:45;99235.59;;;0.19;80.22
67373;BME280;54257;54.496;18.412;2022-12-10T13:00:57;99235.20;;;0.11;79.73
67373;BME280;54257;54.496;18.412;2022-12-10T13:03:43;99236.32;;;0.06;79.55
67373;BME280;54257;54.496;18.412;2022-12-10T13:06:23;99237.32;;;0.06;80.22
67373;BME280;54257;54.496;18.412;2022-12-10T13:21:57;99244.61;;;0.33;80.75
67373;BME280;54257;54.496;18.412;2022-12-10T13:29:48;99252.43;;;0.24;79.47
67373;BME280;54257;54.496;18.412;2022-12-10T13:32:23;99254.38;;;0.19;79.25
67373;BME280;54257;54.496;18.412;2022-12-10T13:37:53;99261.58;;;0.04;78.78
67373;BME280;54257;54.496;18.412;2022-12-10T13:43:36;99265.80;;;-0.17;78.16
67373;BME280;54257;54.496;18.412;2022-12-10T13:49:02;99260.11;;;-0.38;77.99
67373;BME280;54257;54.496;18.412;2022-12-10T13:51:39;99262.34;;;-0.47;77.87
67373;BME280;54257;54.496;18.412;2022-12-10T13:54:15;99262.67;;;-0.57;78.06
67373;BME280;54257;54.496;18.412;2022-12-10T13:56:54;99259.99;;;-0.67;78.00
67373;BME280;54257;54.496;18.412;2022-12-10T13:59:31;99258.73;;;-0.76;78.10
67373;BME280;54257;54.496;18.412;2022-12-10T14:05:07;99253.64;;;-0.94;78.15
67373;BME280;54257;54.496;18.412;2022-12-10T14:07:44;99259.95;;;-1.01;78.26
67373;BME280;54257;54.496;18.412;2022-12-10T14:10:13;99263.59;;;-1.06;78.34
67373;BME280;54257;54.496;18.412;2022-12-10T14:12:42;99269.10;;;-1.09;78.37
67373;BME280;54257;54.496;18.412;2022-12-10T14:15:18;99268.73;;;-1.14;78.32
67373;BME280;54257;54.496;18.412;2022-12-10T14:18:08;99269.48;;;-1.18;78.10
67373;BME280;54257;54.496;18.412;2022-12-10T14:20:36;99271.77;;;-1.23;77.93
67373;BME280;54257;54.496;18.412;2022-12-10T14:23:22;99269.30;;;-1.28;77.84
67373;BME280;54257;54.496;18.412;2022-12-10T14:26:12;99271.80;;;-1.35;77.53
67373;BME280;54257;54.496;18.412;2022-12-10T14:28:46;99271.79;;;-1.42;77.32
67373;BME280;54257;54.496;18.412;2022-12-10T14:31:39;99271.40;;;-1.49;77.14
67373;BME280;54257;54.496;18.412;2022-12-10T14:34:05;99271.27;;;-1.58;77.07
67373;BME280;54257;54.496;18.412;2022-12-10T14:36:35;99268.40;;;-1.64;77.00
67373;BME280;54257;54.496;18.412;2022-12-10T14:39:11;99272.30;;;-1.70;76.78
67373;BME280;54257;54.496;18.412;2022-12-10T14:41:41;99271.98;;;-1.76;76.78
67373;BME280;54257;54.496;18.412;2022-12-10T14:44:11;99268.22;;;-1.81;76.74
67373;BME280;54257;54.496;18.412;2022-12-10T14:46:39;99263.09;;;-1.86;76.52
67373;BME280;54257;54.496;18.412;2022-12-10T14:49:08;99264.84;;;-1.90;76.28
67373;BME280;54257;54.496;18.412;2022-12-10T14:51:40;99270.55;;;-1.96;76.15
67373;BME280;54257;54.496;18.412;2022-12-10T14:54:23;99269.68;;;-2.03;75.86
67373;BME280;54257;54.496;18.412;2022-12-10T14:56:50;99274.32;;;-2.13;75.62
67373;BME280;54257;54.496;18.412;2022-12-10T14:59:21;99274.63;;;-2.19;75.61
67373;BME280;54257;54.496;18.412;2022-12-10T15:01:51;99274.13;;;-2.25;75.71
67373;BME280;54257;54.496;18.412;2022-12-10T15:04:22;99272.20;;;-2.33;75.71
67373;BME280;54257;54.496;18.412;2022-12-10T15:06:51;99272.77;;;-2.38;75.77
67373;BME280;54257;54.496;18.412;2022-12-10T15:09:25;99269.58;;;-2.44;75.73
67373;BME280;54257;54.496;18.412;2022-12-10T15:11:56;99272.20;;;-2.51;75.65
67373;BME280;54257;54.496;18.412;2022-12-10T15:14:24;99272.05;;;-2.59;75.37
67373;BME280;54257;54.496;18.412;2022-12-10T15:16:55;99273.85;;;-2.68;75.10
67373;BME280;54257;54.496;18.412;2022-12-10T15:22:00;99273.30;;;-2.87;74.62